»·PEaware :: N7GL KSMX-KRAL

N7GL :: KSMX-KRAL

FLIGHT INFORMATION

Flight Status: Arrived
Operator: Privately registered:
United States
More flights under this callsign
Pilot: Georg L. (13308)
Aircraft: BEECH AIRCRAFT SUPER KING AIR 350
(B350)
More flights by this aircraft type
Origin: KSMX Santa Maria Pub/Capt Hancock
United States
Destination: KRAL Riverside Mun
United States
More flights between these airports :: More routes between these airports
Route: RZS V386 FIM V186 ITSME V264 POM V197 PDZ
File this flight plan on PilotEdge
Remarks: TEC ROUTE SBAP52
Altitude:
(Current/Filed)
9,000ft
Speed:
(Current/Filed)
297kts
Departed: 02-Dec-20 08:42 AM
Arrived: 02-Dec-20 09:23 AM
Distance/Time
Traveled:
160nm/0:41
Distance/Time
To Go:
Arrived

Flight Plot

Page will automatically refresh every two minutes.


Map Options




Map Legend


Flown Route
Filed Route
Departure Airport
Arrival Airport
Navaid (VOR, NDB)
Fix

Horizontal Profiles

Position Reports

Time Latitude Longitude Heading Altitude Ground
Speed
02-Dec-20 08:18 34.896989 -120.446634 131 266ft 0kts
02-Dec-20 08:19 34.896989 -120.446634 131 266ft 0kts
02-Dec-20 08:20 34.896989 -120.446634 131 266ft 0kts
02-Dec-20 08:21 34.896989 -120.446634 131 266ft 0kts
02-Dec-20 08:22 34.896989 -120.446634 131 266ft 0kts
02-Dec-20 08:23 34.896989 -120.446634 131 266ft 0kts
02-Dec-20 08:24 34.896989 -120.446634 131 266ft 0kts
02-Dec-20 08:25 34.896989 -120.446634 131 266ft 0kts
02-Dec-20 08:26 34.896989 -120.446633 132 266ft 0kts
02-Dec-20 08:27 34.896989 -120.446633 131 266ft 0kts
02-Dec-20 08:28 34.896989 -120.446633 131 266ft 0kts
02-Dec-20 08:29 34.896989 -120.446633 131 266ft 0kts
02-Dec-20 08:30 34.896989 -120.446633 131 266ft 0kts
02-Dec-20 08:31 34.896989 -120.446633 131 266ft 0kts
02-Dec-20 08:32 34.896989 -120.446633 131 266ft 0kts
02-Dec-20 08:32 34.896989 -120.446633 131 266ft 0kts
02-Dec-20 08:34 34.896989 -120.446633 131 266ft 0kts
02-Dec-20 08:34 34.896989 -120.446633 131 266ft 0kts
02-Dec-20 08:36 34.896989 -120.446633 131 266ft 0kts
02-Dec-20 08:36 34.896938 -120.446588 165 266ft 3kts
02-Dec-20 08:37 34.896431 -120.447726 140 266ft 7kts
02-Dec-20 08:38 34.893449 -120.445211 183 266ft 0kts
02-Dec-20 08:39 34.893449 -120.445211 183 266ft 0kts
02-Dec-20 08:40 34.893449 -120.445211 183 266ft 0kts
02-Dec-20 08:41 34.894363 -120.447750 318 266ft 75kts
02-Dec-20 08:42 34.925596 -120.469277 21 1755ft 163kts
02-Dec-20 08:43 34.927339 -120.418455 111 3754ft 177kts
02-Dec-20 08:44 34.906546 -120.359407 113 5022ft 217kts
02-Dec-20 08:45 34.890628 -120.311900 111 5065ft 253kts
02-Dec-20 08:46 34.853945 -120.236834 131 5394ft 253kts
02-Dec-20 08:47 34.808584 -120.176795 131 7105ft 234kts
02-Dec-20 08:48 34.764573 -120.116750 131 8318ft 249kts
02-Dec-20 08:49 34.716880 -120.052015 131 9012ft 273kts
02-Dec-20 08:50 34.664769 -119.981344 131 9002ft 285kts
02-Dec-20 08:51 34.611604 -119.909466 131 8998ft 286kts
02-Dec-20 08:52 34.558341 -119.837642 131 8999ft 286kts
02-Dec-20 08:53 34.509005 -119.762940 110 8991ft 284kts
02-Dec-20 08:54 34.492794 -119.669769 101 8999ft 283kts
02-Dec-20 08:55 34.476225 -119.576183 100 8999ft 283kts
02-Dec-20 08:56 34.460262 -119.482750 100 8999ft 283kts
02-Dec-20 08:57 34.444246 -119.389067 100 8999ft 283kts
02-Dec-20 08:58 34.428228 -119.295751 100 8999ft 283kts
02-Dec-20 08:59 34.412083 -119.202102 100 9009ft 283kts
02-Dec-20 09:00 34.395932 -119.108897 101 9009ft 283kts
02-Dec-20 09:01 34.379697 -119.015657 101 9011ft 282kts
02-Dec-20 09:02 34.363421 -118.922568 101 9041ft 282kts
02-Dec-20 09:03 34.339839 -118.832159 111 9067ft 283kts
02-Dec-20 09:04 34.309687 -118.744477 111 9100ft 282kts
02-Dec-20 09:05 34.279541 -118.656544 111 9100ft 282kts
02-Dec-20 09:06 34.249511 -118.568975 111 9099ft 282kts
02-Dec-20 09:07 34.219497 -118.481318 110 9049ft 283kts
02-Dec-20 09:08 34.192471 -118.392219 108 8044ft 279kts
02-Dec-20 09:09 34.166070 -118.304589 109 7071ft 275kts
02-Dec-20 09:10 34.140074 -118.218918 109 7050ft 272kts
02-Dec-20 09:11 34.113875 -118.132626 110 6517ft 272kts
02-Dec-20 09:12 34.087825 -118.048322 110 5407ft 264kts
02-Dec-20 09:13 34.076487 -117.964742 89 4993ft 253kts
02-Dec-20 09:14 34.076829 -117.877261 88 4999ft 264kts
02-Dec-20 09:15 34.077394 -117.794250 98 4974ft 229kts
02-Dec-20 09:16 34.042023 -117.728055 127 3779ft 249kts
02-Dec-20 09:17 33.996137 -117.668839 105 2763ft 217kts
02-Dec-20 09:18 33.983341 -117.604675 102 2805ft 196kts
02-Dec-20 09:19 33.972174 -117.546708 102 2382ft 163kts
02-Dec-20 09:20 33.962659 -117.497363 100 1639ft 132kts
02-Dec-20 09:21 33.955026 -117.457887 103 952ft 109kts
02-Dec-20 09:22 33.951309 -117.439838 195 820ft 12kts
02-Dec-20 09:23 33.950764 -117.440162 229 820ft 4kts
02-Dec-20 09:24 33.950131 -117.442898 211 820ft 0kts
02-Dec-20 09:25 33.950123 -117.443108 280 820ft 0kts
02-Dec-20 09:26 33.950123 -117.443108 280 820ft 0kts
02-Dec-20 09:27 33.950123 -117.443108 280 820ft 0kts
02-Dec-20 09:28 33.950148 -117.442895 280 820ft 2kts
02-Dec-20 09:29 33.950045 -117.442540 264 820ft 0kts
02-Dec-20 09:30 33.950045 -117.442541 264 820ft 0kts
02-Dec-20 09:31 33.950045 -117.442541 264 820ft 0kts
02-Dec-20 09:32 33.950045 -117.442541 264 820ft 0kts
02-Dec-20 09:33 33.950045 -117.442541 264 820ft 0kts

Navigation Log

Ident Type
Flight plan parsing failed, navigation log unavailable